Time;durP1;ratioP1;P1;durP2;ratioP2;P2;SDS_P1;SDS_P2;PMS_P1;PMS_P2;Temp;Humidity;BMP_temperature;BMP_pressure;BME280_temperature;BME280_humidity;BME280_pressure;Samples;Min_cycle;Max_cycle;Signal;HPM_P1;HPM_P2
2023/04/20 00:01:30;;;;;;;;;12.25;11.00;;;;;-147.17;100.00;49186.69;5021581;28;51136;-58
2023/04/20 00:03:55;;;;;;;;;11.00;8.75;;;;;-147.17;100.00;49208.31;5023410;28;52057;-58
2023/04/20 00:06:21;;;;;;;;;13.75;13.00;;;;;-147.17;100.00;49222.09;5016778;28;51622;-59
2023/04/20 00:08:46;;;;;;;;;10.25;9.75;;;;;-147.17;100.00;49186.69;5023109;28;50985;-57
2023/04/20 00:11:11;;;;;;;;;13.50;11.25;;;;;-147.17;100.00;49182.75;5023261;28;51155;-58
2023/04/20 00:13:40;;;;;;;;;13.25;10.25;;;;;-147.17;100.00;49161.09;5026440;28;51393;-57
2023/04/20 00:16:05;;;;;;;;;14.50;13.75;;;;;-147.17;100.00;49190.63;5015366;28;52946;-59
2023/04/20 00:18:30;;;;;;;;;9.25;8.75;;;;;-147.17;100.00;49147.31;5019417;28;51058;-59
2023/04/20 00:20:56;;;;;;;;;10.25;9.00;;;;;-147.17;100.00;49133.53;5016676;28;51204;-58
2023/04/20 00:23:21;;;;;;;;;14.50;12.25;;;;;-147.17;100.00;49111.91;5027251;28;51423;-59
2023/04/20 00:25:48;;;;;;;;;10.00;10.00;;;;;-147.17;100.00;49178.81;5019938;28;55373;-59
2023/04/20 00:28:14;;;;;;;;;11.50;11.00;;;;;-147.17;100.00;49153.22;5026767;28;52114;-59
2023/04/20 00:30:39;;;;;;;;;12.00;10.50;;;;;-147.17;100.00;49167.00;5031905;28;51187;-60
2023/04/20 00:33:05;;;;;;;;;9.75;8.50;;;;;-147.17;100.00;49178.81;5019958;28;51344;-59
2023/04/20 00:35:30;;;;;;;;;14.50;13.75;;;;;-147.17;100.00;49139.44;5024532;28;52008;-59
2023/04/20 00:37:55;;;;;;;;;8.50;8.00;;;;;-147.17;100.00;49102.06;5027401;28;51296;-58
2023/04/20 00:40:21;;;;;;;;;9.75;9.50;;;;;-147.17;100.00;49117.78;5023194;28;51086;-61
2023/04/20 00:42:46;;;;;;;;;12.00;10.25;;;;;-147.17;100.00;49106.00;5018593;28;51151;-60
2023/04/20 00:45:11;;;;;;;;;12.25;10.00;;;;;-147.17;100.00;49104.03;5025902;28;51235;-60
2023/04/20 00:47:37;;;;;;;;;13.75;13.00;;;;;-147.17;100.00;49056.78;5023730;28;51214;-59
2023/04/20 00:50:03;;;;;;;;;12.25;11.00;;;;;-147.17;100.00;49048.91;5025390;28;51114;-59
2023/04/20 00:52:29;;;;;;;;;11.00;11.00;;;;;-147.17;100.00;49037.13;5007728;28;51117;-59
2023/04/20 00:54:54;;;;;;;;;11.25;10.00;;;;;-147.17;100.00;49043.00;5029942;28;52305;-60
2023/04/20 00:57:22;;;;;;;;;9.50;9.50;;;;;-147.17;100.00;49013.50;5000933;28;52005;-59
2023/04/20 00:59:50;;;;;;;;;15.75;12.75;;;;;-147.17;100.00;49041.03;5027387;28;51798;-60
2023/04/20 01:02:17;;;;;;;;;12.00;11.00;;;;;-147.17;100.00;49050.88;5024847;28;51028;-59
2023/04/20 01:04:42;;;;;;;;;10.00;9.25;;;;;-147.17;100.00;48989.88;5028240;28;52933;-59
2023/04/20 01:07:08;;;;;;;;;11.00;11.00;;;;;-147.17;100.00;48972.16;5006270;28;51491;-59
2023/04/20 01:09:37;;;;;;;;;8.00;8.00;;;;;-147.17;100.00;49003.66;5014465;28;51676;-59
2023/04/20 01:12:02;;;;;;;;;8.50;7.50;;;;;-147.17;100.00;48958.41;4998635;28;51326;-60
2023/04/20 01:14:28;;;;;;;;;12.25;11.50;;;;;-147.17;100.00;48966.28;5018453;28;51367;-60
2023/04/20 01:16:54;;;;;;;;;8.75;8.75;;;;;-147.17;100.00;48956.44;5024615;28;51022;-59
2023/04/20 01:19:20;;;;;;;;;11.00;9.00;;;;;-147.17;100.00;48946.59;5025482;28;51416;-58
2023/04/20 01:21:46;;;;;;;;;11.50;10.50;;;;;-147.17;100.00;48972.16;5013101;28;51281;-58
2023/04/20 01:24:12;;;;;;;;;11.00;11.00;;;;;-147.17;100.00;48962.34;5033251;28;52292;-58
2023/04/20 01:26:37;;;;;;;;;14.75;12.50;;;;;-147.17;100.00;48993.81;5019392;28;51080;-59
2023/04/20 01:29:03;;;;;;;;;16.00;13.50;;;;;-147.17;100.00;48974.13;5020032;28;51448;-58
2023/04/20 01:31:29;;;;;;;;;11.75;10.75;;;;;-147.17;100.00;48983.97;5032822;28;50977;-58
2023/04/20 01:33:54;;;;;;;;;12.00;10.50;;;;;-147.17;100.00;48909.19;5019270;28;51135;-59
2023/04/20 01:36:20;;;;;;;;;8.75;8.25;;;;;-147.17;100.00;48924.94;5025979;28;51149;-59
2023/04/20 01:38:45;;;;;;;;;14.50;12.75;;;;;-147.17;100.00;48932.81;5033165;28;51040;-60
2023/04/20 01:41:11;;;;;;;;;12.25;10.75;;;;;-147.17;100.00;48946.59;5014383;28;51408;-59
2023/04/20 01:43:38;;;;;;;;;12.50;11.00;;;;;-147.17;100.00;48917.06;5017015;28;52005;-59
2023/04/20 01:46:04;;;;;;;;;10.50;9.75;;;;;-147.17;100.00;48919.03;5019874;28;50996;-59
2023/04/20 01:48:30;;;;;;;;;11.75;11.00;;;;;-147.17;100.00;48871.81;5019853;28;51128;-58
2023/04/20 01:50:55;;;;;;;;;10.00;9.25;;;;;-147.17;100.00;48873.78;5031492;28;50993;-59
2023/04/20 01:53:20;;;;;;;;;11.00;9.25;;;;;-147.17;100.00;48836.38;4995929;28;52786;-59
2023/04/20 01:55:47;;;;;;;;;13.00;11.25;;;;;-147.17;100.00;48828.53;5028756;28;51009;-61
2023/04/20 01:58:12;;;;;;;;;11.75;10.75;;;;;-147.17;100.00;48877.72;5019123;28;50970;-60
2023/04/20 02:00:38;;;;;;;;;13.25;13.25;;;;;-147.17;100.00;48840.31;5004194;28;51440;-60
2023/04/20 02:03:03;;;;;;;;;10.75;10.75;;;;;-147.17;100.00;48773.41;5028876;28;51120;-60
2023/04/20 02:05:28;;;;;;;;;11.50;10.50;;;;;-147.17;100.00;48795.06;5011372;28;51154;-60
2023/04/20 02:07:57;;;;;;;;;12.00;9.50;;;;;-147.17;100.00;48812.78;5017701;28;51491;-60
2023/04/20 02:10:22;;;;;;;;;12.00;10.50;;;;;-147.17;100.00;48747.84;5001062;28;51501;-59
2023/04/20 02:12:55;;;;;;;;;11.00;10.75;;;;;-147.17;100.00;48726.19;5020340;28;51015;-59
2023/04/20 02:15:20;;;;;;;;;10.00;8.75;;;;;-147.17;100.00;48700.63;5007946;28;50903;-59
2023/04/20 02:17:46;;;;;;;;;11.00;11.00;;;;;-147.17;100.00;48702.59;5022491;28;51080;-58
2023/04/20 02:20:12;;;;;;;;;9.75;9.75;;;;;-147.17;100.00;48722.25;5024865;28;51374;-58
2023/04/20 02:22:40;;;;;;;;;10.00;9.25;;;;;-147.17;100.00;48702.59;5006419;28;54929;-59
2023/04/20 02:25:08;;;;;;;;;7.75;6.25;;;;;-147.17;100.00;48710.44;5016406;28;51242;-58
2023/04/20 02:27:34;;;;;;;;;8.25;8.00;;;;;-147.17;100.00;48706.53;5017484;28;51976;-59
2023/04/20 02:30:03;;;;;;;;;10.50;7.75;;;;;-147.17;100.00;48734.06;5013802;28;51025;-58
2023/04/20 02:32:31;;;;;;;;;10.25;9.25;;;;;-147.17;100.00;48749.81;5027102;28;52271;-59
2023/04/20 02:34:57;;;;;;;;;7.25;7.25;;;;;-147.17;100.00;48777.34;5016366;28;51350;-59
2023/04/20 02:37:23;;;;;;;;;7.00;7.00;;;;;-147.17;100.00;48739.97;5017909;28;51581;-59
2023/04/20 02:39:51;;;;;;;;;7.50;5.75;;;;;-147.17;100.00;48781.28;5012887;28;51237;-60
2023/04/20 02:42:18;;;;;;;;;7.75;7.25;;;;;-147.17;100.00;48745.88;5025267;28;52379;-58
2023/04/20 02:44:44;;;;;;;;;6.00;6.00;;;;;-147.17;100.00;48755.72;5002979;28;51250;-59
2023/04/20 02:47:12;;;;;;;;;8.50;7.00;;;;;-147.17;100.00;48755.72;5020954;28;51182;-58
2023/04/20 02:49:38;;;;;;;;;13.00;10.00;;;;;-147.17;100.00;48753.75;5026135;28;51238;-58
2023/04/20 02:52:04;;;;;;;;;6.75;6.75;;;;;-147.17;100.00;48730.13;5018381;28;51664;-58
2023/04/20 02:54:32;;;;;;;;;8.75;6.00;;;;;-147.17;100.00;48714.38;4996779;28;51307;-59
2023/04/20 02:56:57;;;;;;;;;7.25;6.25;;;;;-147.17;100.00;48753.75;5023234;28;51363;-60
2023/04/20 02:59:23;;;;;;;;;8.00;8.00;;;;;-147.17;100.00;48718.31;5012761;28;51376;-59
2023/04/20 03:01:48;;;;;;;;;9.00;8.75;;;;;-147.17;100.00;48741.94;5005744;28;51209;-62
2023/04/20 03:04:13;;;;;;;;;8.75;8.25;;;;;-147.17;100.00;48631.75;5017172;28;52000;-60
2023/04/20 03:06:39;;;;;;;;;6.00;6.00;;;;;-147.17;100.00;48659.28;5021354;28;51396;-58
2023/04/20 03:09:05;;;;;;;;;4.50;4.50;;;;;-147.17;100.00;48633.72;5019509;28;51482;-59
2023/04/20 03:11:30;;;;;;;;;8.50;7.00;;;;;-147.17;100.00;48625.84;5017605;28;51214;-57
2023/04/20 03:13:55;;;;;;;;;6.00;6.00;;;;;-147.17;100.00;48582.56;5024253;28;55398;-59
2023/04/20 03:16:21;;;;;;;;;6.00;6.00;;;;;-147.17;100.00;48655.34;5019200;28;51327;-58
2023/04/20 03:18:46;;;;;;;;;9.00;8.25;;;;;-147.17;100.00;48623.88;5022253;28;51195;-58
2023/04/20 03:21:11;;;;;;;;;6.50;6.00;;;;;-147.17;100.00;48653.38;5001418;28;51357;-57
2023/04/20 03:23:37;;;;;;;;;5.25;5.25;;;;;-147.17;100.00;48592.38;4992183;28;51112;-58
2023/04/20 03:26:03;;;;;;;;;6.25;6.25;;;;;-147.17;100.00;48580.59;5017650;28;52853;-59
2023/04/20 03:28:28;;;;;;;;;8.25;8.00;;;;;-147.17;100.00;48551.06;5021407;28;51264;-58
2023/04/20 03:31:00;;;;;;;;;7.50;4.75;;;;;-147.17;100.00;48549.09;5023287;28;51519;-60
2023/04/20 03:33:28;;;;;;;;;8.50;8.00;;;;;-147.17;100.00;48458.59;5028623;28;51148;-59
2023/04/20 03:35:57;;;;;;;;;7.50;6.00;;;;;-147.17;100.00;48517.63;5014403;28;51176;-59
2023/04/20 03:38:22;;;;;;;;;5.25;5.25;;;;;-147.17;100.00;48486.13;5017152;28;51379;-58
2023/04/20 03:40:47;;;;;;;;;5.00;4.25;;;;;-147.17;100.00;48480.22;5025830;28;52077;-59
2023/04/20 03:43:16;;;;;;;;;8.00;6.00;;;;;-147.17;100.00;48446.78;5026204;28;51140;-60
2023/04/20 03:45:44;;;;;;;;;6.75;6.75;;;;;-147.17;100.00;48470.41;5023829;28;51169;-59
2023/04/20 03:48:09;;;;;;;;;5.75;4.75;;;;;-147.17;100.00;48434.97;5011795;28;51247;-59
2023/04/20 03:50:35;;;;;;;;;5.25;5.00;;;;;-147.17;100.00;48478.25;5025594;28;51770;-60
2023/04/20 03:53:01;;;;;;;;;7.75;6.25;;;;;-147.17;100.00;48501.88;5032690;28;51414;-60
2023/04/20 03:55:26;;;;;;;;;5.75;5.75;;;;;-147.17;100.00;48431.03;5022657;28;51099;-59
2023/04/20 03:57:53;;;;;;;;;8.00;6.25;;;;;-147.17;100.00;48497.94;5035763;28;50867;-59
2023/04/20 04:00:19;;;;;;;;;6.75;5.50;;;;;-147.17;100.00;48419.25;5022755;28;51732;-59
2023/04/20 04:02:49;;;;;;;;;4.00;4.00;;;;;-147.17;100.00;48411.38;5023235;28;51101;-60
2023/04/20 04:05:15;;;;;;;;;4.25;4.25;;;;;-147.17;100.00;48427.09;5034854;28;50967;-59
2023/04/20 04:07:41;;;;;;;;;8.00;6.25;;;;;-147.17;100.00;48434.97;5016305;28;51438;-60
2023/04/20 04:10:07;;;;;;;;;8.25;7.00;;;;;-147.17;100.00;48434.97;5018262;28;51372;-58
2023/04/20 04:12:32;;;;;;;;;5.00;4.25;;;;;-147.17;100.00;48438.91;5032493;28;51035;-59
2023/04/20 04:14:58;;;;;;;;;6.25;5.00;;;;;-147.17;100.00;48492.03;5020075;28;51174;-60
2023/04/20 04:17:23;;;;;;;;;6.75;6.75;;;;;-147.17;100.00;48495.97;5015730;28;50982;-58
2023/04/20 04:19:51;;;;;;;;;4.75;4.75;;;;;-147.17;100.00;48527.47;5020666;28;51856;-60
2023/04/20 04:22:17;;;;;;;;;7.00;6.75;;;;;-147.17;100.00;48580.59;5033077;28;51240;-60
2023/04/20 04:24:45;;;;;;;;;3.25;3.25;;;;;-147.17;100.00;48596.31;5020660;28;51204;-59
2023/04/20 04:27:14;;;;;;;;;7.75;7.50;;;;;-147.17;100.00;48556.97;5028675;28;51412;-59
2023/04/20 04:29:46;;;;;;;;;9.00;7.75;;;;;-147.17;100.00;48623.88;5032938;28;51796;-59
2023/04/20 04:32:12;;;;;;;;;7.00;7.00;;;;;-147.17;100.00;48667.16;5010965;28;52617;-59
2023/04/20 04:34:39;;;;;;;;;6.50;6.50;;;;;-147.17;100.00;48655.34;5034400;28;51125;-59
2023/04/20 04:37:04;;;;;;;;;7.00;7.00;;;;;-147.17;100.00;48645.53;4999736;28;51089;-59
2023/04/20 04:39:36;;;;;;;;;8.25;5.75;;;;;-147.17;100.00;48718.31;5016558;28;51924;-59
2023/04/20 04:42:02;;;;;;;;;5.50;5.00;;;;;-147.17;100.00;48665.19;5030112;28;51857;-58
2023/04/20 04:44:28;;;;;;;;;3.00;3.00;;;;;-147.17;100.00;48692.75;5024797;28;51154;-58
2023/04/20 04:46:54;;;;;;;;;7.75;7.25;;;;;-147.17;100.00;48647.50;4996430;28;51267;-58
2023/04/20 04:49:20;;;;;;;;;5.00;5.00;;;;;-147.17;100.00;48608.13;5013859;28;51147;-59
2023/04/20 04:51:46;;;;;;;;;8.50;7.50;;;;;-147.17;100.00;48655.34;5023396;28;51231;-59
2023/04/20 04:54:11;;;;;;;;;9.25;8.25;;;;;-147.17;100.00;48682.91;5025013;28;51138;-59
2023/04/20 04:56:36;;;;;;;;;7.00;5.50;;;;;-147.17;100.00;48649.44;5015094;28;51165;-59
2023/04/20 04:59:02;;;;;;;;;7.25;7.25;;;;;-147.17;100.00;48655.34;5029871;28;51395;-59
2023/04/20 05:01:27;;;;;;;;;7.00;7.00;;;;;-147.17;100.00;48645.53;5030657;28;51413;-60
2023/04/20 05:03:52;;;;;;;;;8.00;7.00;;;;;-147.17;100.00;48659.28;5029456;28;51323;-59
2023/04/20 05:06:18;;;;;;;;;7.00;7.00;;;;;-147.17;100.00;48645.53;5031614;28;51414;-60
2023/04/20 05:08:45;;;;;;;;;8.50;8.25;;;;;-147.17;100.00;48651.41;5032664;28;51324;-59
2023/04/20 05:11:10;;;;;;;;;8.00;7.75;;;;;-147.17;100.00;48680.94;5027797;28;51164;-59
2023/04/20 05:13:35;;;;;;;;;7.00;5.00;;;;;-147.17;100.00;48686.84;5031435;28;51286;-59
2023/04/20 05:16:01;;;;;;;;;8.00;7.50;;;;;-147.17;100.00;48678.97;5027219;28;51295;-59
2023/04/20 05:18:26;;;;;;;;;9.00;8.75;;;;;-147.17;100.00;48671.09;5020474;28;51236;-60
2023/04/20 05:20:52;;;;;;;;;8.00;7.00;;;;;-147.17;100.00;48700.63;5031769;28;51102;-60
2023/04/20 05:23:18;;;;;;;;;8.00;7.00;;;;;-147.17;100.00;48702.59;5018251;28;50992;-60
2023/04/20 05:25:44;;;;;;;;;8.25;8.00;;;;;-147.17;100.00;48698.66;5019479;28;51598;-61
2023/04/20 05:28:09;;;;;;;;;8.00;8.00;;;;;-147.17;100.00;48675.03;5026357;28;51098;-59
2023/04/20 05:30:35;;;;;;;;;9.00;9.00;;;;;-147.17;100.00;48690.78;5028222;28;51075;-58
2023/04/20 05:33:00;;;;;;;;;7.25;5.50;;;;;-147.17;100.00;48678.97;5026098;28;51176;-58
2023/04/20 05:35:26;;;;;;;;;8.00;8.00;;;;;-147.17;100.00;48690.78;5010882;28;51408;-59
2023/04/20 05:37:51;;;;;;;;;8.75;8.25;;;;;-147.17;100.00;48704.56;5033097;28;52876;-60
2023/04/20 05:40:16;;;;;;;;;8.00;8.00;;;;;-147.17;100.00;48637.66;5031749;28;51262;-59
2023/04/20 05:42:42;;;;;;;;;9.00;8.50;;;;;-147.17;100.00;48612.06;5009766;28;51436;-58
2023/04/20 05:45:08;;;;;;;;;6.50;6.50;;;;;-147.17;100.00;48484.16;5005031;28;51299;-58
2023/04/20 05:47:33;;;;;;;;;8.00;8.00;;;;;-147.17;100.00;48358.25;5019561;28;52045;-58
2023/04/20 05:49:58;;;;;;;;;8.50;6.00;;;;;-147.17;100.00;48179.19;5021406;28;51146;-59
2023/04/20 05:52:24;;;;;;;;;7.25;6.00;;;;;-147.17;100.00;48320.88;5032672;28;51039;-59
2023/04/20 05:54:49;;;;;;;;;7.75;7.75;;;;;-147.17;100.00;48419.25;5033623;28;51433;-59
2023/04/20 05:57:15;;;;;;;;;8.25;7.75;;;;;-147.17;100.00;48411.38;5029861;28;51882;-59
2023/04/20 05:59:40;;;;;;;;;11.00;9.50;;;;;-147.17;100.00;48643.56;5020521;28;50896;-60
2023/04/20 06:02:05;;;;;;;;;9.00;8.50;;;;;-147.17;100.00;48700.63;5015244;28;51408;-58
2023/04/20 06:04:31;;;;;;;;;8.50;8.50;;;;;-147.17;100.00;48911.16;5002636;28;51348;-58
2023/04/20 06:06:56;;;;;;;;;10.75;9.75;;;;;-147.17;100.00;49056.78;5024461;28;52063;-59
2023/04/20 06:09:21;;;;;;;;;9.75;8.50;;;;;-147.17;100.00;48993.81;5012707;28;50895;-58
2023/04/20 06:11:47;;;;;;;;;10.00;9.25;;;;;-147.17;100.00;49037.13;5024823;28;51273;-59
2023/04/20 06:14:13;;;;;;;;;10.00;9.00;;;;;-147.17;100.00;49027.28;5025832;28;50918;-58
2023/04/20 06:16:39;;;;;;;;;8.25;8.25;;;;;-147.17;100.00;49013.50;5014483;28;51194;-58
2023/04/20 06:19:05;;;;;;;;;11.25;11.00;;;;;-147.17;100.00;49102.06;5028921;28;51192;-56
2023/04/20 06:21:33;;;;;;;;;8.75;8.75;;;;;-147.17;100.00;49068.59;5030351;28;51271;-58
2023/04/20 06:23:58;;;;;;;;;9.25;8.50;;;;;-147.17;100.00;49080.41;5032158;28;51171;-56
2023/04/20 06:26:23;;;;;;;;;9.50;8.50;;;;;-147.17;100.00;49048.91;5030316;28;51203;-58
2023/04/20 06:28:51;;;;;;;;;8.00;8.00;;;;;-147.17;100.00;49106.00;5013078;28;51071;-58
2023/04/20 06:31:17;;;;;;;;;8.75;8.75;;;;;-147.17;100.00;49037.13;5019074;28;51300;-58
2023/04/20 06:33:42;;;;;;;;;10.00;9.75;;;;;-147.17;100.00;49084.34;5032190;28;50944;-58
2023/04/20 06:36:07;;;;;;;;;13.00;11.00;;;;;-147.17;100.00;49102.06;5031668;28;51095;-59
2023/04/20 06:38:33;;;;;;;;;11.00;10.00;;;;;-147.17;100.00;48997.75;5014231;28;51155;-59
2023/04/20 06:41:01;;;;;;;;;10.75;10.50;;;;;-147.17;100.00;49007.59;5031806;28;51136;-59
2023/04/20 06:43:26;;;;;;;;;12.00;10.25;;;;;-147.17;100.00;48887.56;5032159;28;51274;-60
2023/04/20 06:45:52;;;;;;;;;9.25;9.25;;;;;-147.17;100.00;48854.09;5016406;28;52378;-60
2023/04/20 06:48:17;;;;;;;;;10.50;10.50;;;;;-147.17;100.00;48761.63;5006837;28;50994;-59
2023/04/20 06:50:43;;;;;;;;;10.00;9.67;;;;;-147.17;100.00;48665.19;5010377;28;51309;-58
2023/04/20 06:53:08;;;;;;;;;10.33;9.33;;;;;-147.17;100.00;48519.59;5011800;28;51259;-58
2023/04/20 06:55:33;;;;;;;;;10.00;10.00;;;;;-147.17;100.00;48413.34;5026120;28;52126;-58
2023/04/20 06:57:59;;;;;;;;;11.33;11.33;;;;;-147.17;100.00;48381.84;5011083;28;51261;-59
2023/04/20 07:00:27;;;;;;;;;7.67;6.33;;;;;-147.17;100.00;48362.19;4994508;28;50964;-58
2023/04/20 07:02:52;;;;;;;;;9.00;9.00;;;;;-147.17;100.00;48322.81;5029893;28;51321;-58
2023/04/20 07:05:19;;;;;;;;;10.33;10.33;;;;;-147.17;100.00;48234.28;5031843;28;51877;-59
2023/04/20 07:07:45;;;;;;;;;8.33;8.00;;;;;-147.17;100.00;48145.75;5031673;28;51112;-59
2023/04/20 07:10:13;;;;;;;;;8.00;8.00;;;;;-147.17;100.00;48041.47;5032210;28;51188;-58
2023/04/20 07:12:39;;;;;;;;;10.00;8.00;;;;;-147.17;100.00;48065.09;5033403;28;51082;-59
2023/04/20 07:15:06;;;;;;;;;11.33;11.33;;;;;-147.17;100.00;47935.25;5031794;28;51226;-59
2023/04/20 07:17:31;;;;;;;;;11.00;11.00;;;;;-147.17;100.00;47856.53;5021425;28;50918;-59
2023/04/20 07:20:04;;;;;;;;;11.67;11.67;;;;;-147.17;100.00;47691.28;5006049;28;51041;-59
2023/04/20 07:22:30;;;;;;;;;9.67;8.67;;;;;-147.17;100.00;47722.78;5027206;28;50954;-62
2023/04/20 07:24:56;;;;;;;;;11.33;11.00;;;;;-147.17;100.00;47663.75;5026509;28;50982;-60
2023/04/20 07:27:21;;;;;;;;;14.00;13.33;;;;;-147.17;100.00;47709.00;4995069;28;51108;-59
2023/04/20 07:29:46;;;;;;;;;15.67;13.00;;;;;-147.17;100.00;47600.81;5015372;28;50927;-58
2023/04/20 07:32:15;;;;;;;;;11.00;9.67;;;;;-147.17;100.00;47520.16;4997868;28;51378;-59
2023/04/20 07:34:40;;;;;;;;;12.00;11.00;;;;;-147.17;100.00;47400.16;5027890;28;51178;-58
2023/04/20 07:37:05;;;;;;;;;10.67;10.00;;;;;-147.17;100.00;47234.94;5033010;28;51351;-58
2023/04/20 07:39:31;;;;;;;;;11.67;10.00;;;;;-147.17;100.00;47171.97;5024351;28;51129;-59
2023/04/20 07:41:56;;;;;;;;;10.67;10.33;;;;;-147.17;100.00;47091.34;5014066;28;51305;-59
2023/04/20 07:44:22;;;;;;;;;10.67;9.00;;;;;-147.17;100.00;47038.22;5035218;28;51313;-58
2023/04/20 07:46:48;;;;;;;;;11.67;11.33;;;;;-147.17;100.00;47050.03;5029670;28;50974;-58
2023/04/20 07:49:14;;;;;;;;;11.67;11.67;;;;;-147.17;100.00;47000.84;5030717;28;52442;-57
2023/04/20 07:51:39;;;;;;;;;14.33;14.00;;;;;-147.17;100.00;47175.91;5025861;28;50951;-58
2023/04/20 07:54:05;;;;;;;;;12.33;11.33;;;;;-147.17;100.00;47122.81;4998701;28;53027;-59
2023/04/20 07:56:31;;;;;;;;;12.67;12.00;;;;;-147.17;100.00;47162.16;5017255;28;51181;-58
2023/04/20 07:58:56;;;;;;;;;14.00;13.33;;;;;-147.17;100.00;47087.41;5018860;28;51121;-59
2023/04/20 08:01:25;;;;;;;;;10.67;10.00;;;;;-147.17;100.00;47140.50;5015240;28;50855;-58
2023/04/20 08:03:53;;;;;;;;;13.67;12.33;;;;;-147.17;100.00;47048.06;5018230;28;52250;-59
2023/04/20 08:06:18;;;;;;;;;14.00;12.00;;;;;-147.17;100.00;46939.88;5013523;28;51144;-58
2023/04/20 08:08:44;;;;;;;;;11.33;11.33;;;;;-147.17;100.00;46849.41;5030044;28;51060;-57
2023/04/20 08:11:11;;;;;;;;;12.67;12.00;;;;;-147.17;100.00;46768.78;5018760;28;51069;-59
2023/04/20 08:13:36;;;;;;;;;12.00;12.00;;;;;-147.17;100.00;46733.38;5025852;28;52313;-58
2023/04/20 08:16:02;;;;;;;;;14.00;13.33;;;;;-147.17;100.00;46646.84;5022263;28;51444;-57
2023/04/20 08:18:29;;;;;;;;;14.00;14.00;;;;;-147.17;100.00;46491.47;5032921;28;51179;-58
2023/04/20 08:20:55;;;;;;;;;15.33;15.00;;;;;-147.17;100.00;46267.28;5044436;28;50969;-60
2023/04/20 08:23:26;;;;;;;;;12.67;11.67;;;;;-147.17;100.00;46121.75;5032177;28;51130;-59
2023/04/20 08:25:51;;;;;;;;;14.00;13.33;;;;;-147.17;100.00;46035.25;5036239;28;51009;-59
2023/04/20 08:28:17;;;;;;;;;13.00;12.67;;;;;-147.17;100.00;46001.81;5042239;28;51013;-59
2023/04/20 08:30:42;;;;;;;;;14.50;13.50;;;;;-147.17;100.00;45807.13;5041075;28;50828;-58
2023/04/20 08:33:08;;;;;;;;;14.33;13.00;;;;;-147.17;100.00;45848.44;5019737;28;51163;-58
2023/04/20 08:35:33;;;;;;;;;13.00;13.00;;;;;-147.17;100.00;45874.00;5046358;28;51103;-57
2023/04/20 08:37:58;;;;;;;;;13.75;13.00;;;;;-147.17;100.00;45966.41;5024477;28;50971;-58
2023/04/20 08:40:24;;;;;;;;;13.50;13.50;;;;;-147.17;100.00;45787.47;5045706;28;51242;-58
2023/04/20 08:42:50;;;;;;;;;11.25;10.50;;;;;-147.17;100.00;46019.50;5044682;28;52080;-59
2023/04/20 08:45:15;;;;;;;;;15.00;14.33;;;;;-147.17;100.00;46149.28;5039422;28;51261;-58
2023/04/20 08:47:41;;;;;;;;;9.75;9.75;;;;;-147.17;100.00;46098.16;5030170;28;51245;-58
2023/04/20 08:50:08;;;;;;;;;18.75;17.75;;;;;-147.17;100.00;46117.81;5014476;28;51030;-59
2023/04/20 08:52:34;;;;;;;;;16.25;16.25;;;;;-147.17;100.00;45840.56;5028872;28;51877;-58
2023/04/20 08:55:00;;;;;;;;;11.75;11.00;;;;;-147.17;100.00;45659.66;5033449;28;50954;-57
2023/04/20 08:57:26;;;;;;;;;14.50;13.75;;;;;-147.17;100.00;45455.19;5019611;28;50938;-57
2023/04/20 08:59:51;;;;;;;;;15.25;14.50;;;;;-147.17;100.00;45504.34;5014477;28;50904;-59
2023/04/20 09:02:16;;;;;;;;;17.67;16.00;;;;;-147.17;100.00;45612.47;5026973;28;51042;-57
2023/04/20 09:04:42;;;;;;;;;15.67;13.67;;;;;-147.17;100.00;45677.38;5033527;28;50946;-58
2023/04/20 09:07:17;;;;;;;;;12.67;12.00;;;;;-147.17;100.00;45484.69;5041840;28;51247;-58
2023/04/20 09:09:54;;;;;;;;;13.33;13.33;;;;;-147.17;100.00;45201.56;5033081;28;50953;-57
2023/04/20 09:12:19;;;;;;;;;14.00;13.33;;;;;-147.17;100.00;44934.19;5042503;28;52293;-57
2023/04/20 09:14:47;;;;;;;;;13.50;12.75;;;;;-147.17;100.00;44552.84;5045442;28;51122;-58
2023/04/20 09:17:13;;;;;;;;;12.33;11.33;;;;;-147.17;100.00;44442.78;5036900;28;51196;-58
2023/04/20 09:19:42;;;;;;;;;12.33;12.00;;;;;-147.17;100.00;44505.66;5018734;28;51300;-57
2023/04/20 09:22:08;;;;;;;;;16.00;15.33;;;;;-147.17;100.00;44486.00;5032918;28;52488;-58
2023/04/20 09:24:35;;;;;;;;;22.75;21.75;;;;;-147.17;100.00;44307.16;5012324;28;51880;-59
2023/04/20 09:27:14;;;;;;;;;14.33;13.00;;;;;-147.17;100.00;44065.38;5038318;28;51186;-58
2023/04/20 09:29:40;;;;;;;;;12.00;11.00;;;;;-147.17;100.00;44104.69;5018961;28;51437;-59
2023/04/20 09:32:05;;;;;;;;;13.00;13.00;;;;;-147.17;100.00;44067.34;5043437;28;50982;-59
2023/04/20 09:34:44;;;;;;;;;12.00;11.00;;;;;-147.17;100.00;43864.91;5030079;28;50878;-58
2023/04/20 09:37:13;;;;;;;;;13.25;12.00;;;;;-147.17;100.00;44230.50;5020181;28;50986;-59
2023/04/20 09:39:42;;;;;;;;;14.67;13.33;;;;;-147.17;100.00;44344.50;5041927;28;51169;-59
2023/04/20 09:42:11;;;;;;;;;14.33;13.00;;;;;-147.17;100.00;44128.28;5047963;28;51109;-59
2023/04/20 09:44:40;;;;;;;;;11.00;11.00;;;;;-147.17;100.00;44002.50;5041173;28;51143;-59
2023/04/20 09:47:07;;;;;;;;;13.33;11.67;;;;;-147.17;100.00;43845.28;5036715;28;51151;-58
2023/04/20 09:49:33;;;;;;;;;11.67;11.00;;;;;-147.17;100.00;43943.53;5034005;28;50879;-59
2023/04/20 09:52:03;;;;;;;;;9.00;8.67;;;;;-147.17;100.00;43813.81;5031950;28;51916;-58
2023/04/20 09:54:29;;;;;;;;;9.67;9.67;;;;;-147.17;100.00;43585.84;5023027;28;51202;-59
2023/04/20 09:57:00;;;;;;;;;7.25;6.75;;;;;-147.17;100.00;43426.69;5033926;28;51187;-58
2023/04/20 09:59:26;;;;;;;;;8.00;7.67;;;;;-147.17;100.00;43491.53;5032800;28;51456;-59
2023/04/20 10:01:52;;;;;;;;;10.00;10.00;;;;;-147.17;100.00;43576.03;5043738;28;51302;-59
2023/04/20 10:04:17;;;;;;;;;10.33;9.33;;;;;-147.17;100.00;43650.72;5045282;28;51008;-58
2023/04/20 10:06:54;;;;;;;;;10.33;9.00;;;;;-147.17;100.00;43442.41;5044952;28;51077;-59
2023/04/20 10:09:27;;;;;;;;;8.67;8.00;;;;;-147.17;100.00;43173.19;5030086;28;51036;-59
2023/04/20 10:12:04;;;;;;;;;10.25;10.00;;;;;-147.17;100.00;43267.50;5041155;28;51131;-58
2023/04/20 10:14:30;;;;;;;;;10.33;9.33;;;;;-147.17;100.00;43355.94;5049285;28;50958;-58
2023/04/20 10:17:07;;;;;;;;;13.00;12.67;;;;;-147.17;100.00;44289.47;5030941;28;51151;-57
2023/04/20 10:19:40;;;;;;;;;14.00;12.75;;;;;-147.17;100.00;45429.63;5031678;28;52104;-58
2023/04/20 10:22:11;;;;;;;;;12.00;10.67;;;;;-147.17;100.00;46589.81;5022129;28;52085;-57
2023/04/20 10:24:37;;;;;;;;;12.33;12.00;;;;;-147.17;100.00;47439.50;5029708;28;51190;-58
2023/04/20 10:27:04;;;;;;;;;9.33;9.33;;;;;-147.17;100.00;48163.47;5013733;28;51237;-58
2023/04/20 10:29:34;;;;;;;;;15.00;13.67;;;;;-147.17;100.00;48641.59;5031020;28;51393;-57
2023/04/20 10:31:59;;;;;;;;;12.50;12.50;;;;;-147.17;100.00;49007.59;5021927;28;52262;-57
2023/04/20 10:34:32;;;;;;;;;13.75;13.50;;;;;-147.17;100.00;49289.00;5019508;28;51046;-58
2023/04/20 10:37:08;;;;;;;;;12.00;11.33;;;;;-147.17;100.00;49521.25;5032070;28;51099;-57
2023/04/20 10:39:36;;;;;;;;;13.00;12.00;;;;;-147.17;100.00;49637.38;5030622;28;51105;-58
2023/04/20 10:42:02;;;;;;;;;11.00;11.00;;;;;-147.17;100.00;49804.66;5031780;28;51304;-58
2023/04/20 10:44:29;;;;;;;;;10.25;10.00;;;;;-147.17;100.00;49899.16;5028687;28;51110;-58
2023/04/20 10:46:55;;;;;;;;;11.67;11.00;;;;;-147.17;100.00;49962.13;5039004;28;51216;-58
2023/04/20 10:49:28;;;;;;;;;13.75;12.00;;;;;-147.17;100.00;50025.13;5023661;28;50926;-58
2023/04/20 10:51:55;;;;;;;;;12.33;11.67;;;;;-147.17;100.00;50040.88;5035811;28;51145;-58
2023/04/20 10:54:21;;;;;;;;;11.25;10.50;;;;;-147.17;100.00;50095.97;5026594;28;51376;-57
2023/04/20 10:56:51;;;;;;;;;14.00;13.75;;;;;-147.17;100.00;50099.91;5012584;28;50968;-58
2023/04/20 10:59:19;;;;;;;;;12.25;11.75;;;;;-147.17;100.00;50174.72;5030262;28;51007;-59